createdAt,value
2023-05-05T00:00:31.744Z,38.56
2023-05-05T00:01:31.757Z,38.55
2023-05-05T00:02:31.835Z,38.57
2023-05-05T00:03:31.806Z,38.57
2023-05-05T00:04:31.748Z,38.56
2023-05-05T00:05:31.730Z,38.57
2023-05-05T00:06:31.725Z,38.58
2023-05-05T00:07:31.750Z,38.58
2023-05-05T00:08:31.736Z,38.57
2023-05-05T00:09:31.744Z,38.56
2023-05-05T00:10:31.725Z,38.57
2023-05-05T00:11:31.740Z,38.57
2023-05-05T00:12:31.787Z,38.57
2023-05-05T00:13:31.735Z,38.58
2023-05-05T00:14:31.738Z,38.57
2023-05-05T00:15:31.730Z,38.56
2023-05-05T00:16:31.749Z,38.58
2023-05-05T00:17:31.766Z,38.58
2023-05-05T00:18:31.744Z,38.57
2023-05-05T00:19:31.759Z,38.56
2023-05-05T00:20:31.765Z,38.59
2023-05-05T00:21:31.750Z,38.60
2023-05-05T00:22:31.754Z,38.58
2023-05-05T00:23:31.773Z,38.58
2023-05-05T00:24:31.761Z,38.60
2023-05-05T00:25:31.764Z,38.59
2023-05-05T00:26:31.776Z,38.59
2023-05-05T00:27:31.759Z,38.57
2023-05-05T00:28:31.789Z,38.58
2023-05-05T00:29:31.773Z,38.59
2023-05-05T00:30:31.809Z,38.57
2023-05-05T00:31:31.797Z,38.60
2023-05-05T00:32:31.814Z,38.58
2023-05-05T00:33:31.788Z,38.58
2023-05-05T00:34:31.785Z,38.62
2023-05-05T00:35:32.520Z,38.58
2023-05-05T00:36:31.797Z,38.60
2023-05-05T00:37:31.802Z,38.62
2023-05-05T00:38:31.820Z,38.60
2023-05-05T00:39:31.821Z,38.59
2023-05-05T00:40:31.820Z,38.60
2023-05-05T00:41:31.831Z,38.61
2023-05-05T00:42:31.815Z,38.60
2023-05-05T00:43:31.819Z,38.60
2023-05-05T00:44:31.817Z,38.63
2023-05-05T00:45:31.817Z,38.65
2023-05-05T00:46:31.847Z,38.62
2023-05-05T00:47:31.835Z,38.59
2023-05-05T00:48:31.835Z,38.61
2023-05-05T00:49:31.855Z,38.63
2023-05-05T00:50:31.857Z,38.63
2023-05-05T00:51:31.846Z,38.63
2023-05-05T00:52:31.849Z,38.62
2023-05-05T00:53:31.854Z,38.63
2023-05-05T00:54:31.858Z,38.63
2023-05-05T00:55:31.869Z,38.63
2023-05-05T00:56:31.874Z,38.61
2023-05-05T00:57:31.870Z,38.63
2023-05-05T00:58:31.874Z,38.62
2023-05-05T00:59:31.876Z,38.63
2023-05-05T01:00:31.889Z,38.63
2023-05-05T01:01:31.914Z,38.62
2023-05-05T01:02:31.986Z,38.61
2023-05-05T01:03:31.988Z,38.64
2023-05-05T01:04:31.915Z,38.62
2023-05-05T01:05:31.930Z,38.61
2023-05-05T01:06:31.937Z,38.61
2023-05-05T01:07:31.940Z,38.62
2023-05-05T01:08:31.962Z,38.63
2023-05-05T01:09:31.973Z,38.63
2023-05-05T01:10:32.946Z,38.61
2023-05-05T01:11:31.975Z,38.62
2023-05-05T01:12:32.038Z,38.60
2023-05-05T01:13:31.986Z,38.61
2023-05-05T01:14:31.993Z,38.63
2023-05-05T01:15:32.006Z,38.61
2023-05-05T01:16:32.075Z,38.63
2023-05-05T01:17:32.064Z,38.62
2023-05-05T01:18:32.041Z,38.62
2023-05-05T01:19:32.043Z,38.63
2023-05-05T01:20:32.057Z,38.63
2023-05-05T01:21:32.073Z,38.62
2023-05-05T01:22:32.110Z,38.62
2023-05-05T01:23:32.077Z,38.65
2023-05-05T01:24:32.091Z,38.65
2023-05-05T01:25:32.087Z,38.61
2023-05-05T01:26:32.103Z,38.66
2023-05-05T01:27:32.092Z,38.63
2023-05-05T01:28:32.098Z,38.66
2023-05-05T01:29:32.108Z,38.64
2023-05-05T01:30:32.122Z,38.64
2023-05-05T01:31:32.160Z,38.66
2023-05-05T01:32:32.145Z,38.67
2023-05-05T01:33:32.144Z,38.65
2023-05-05T01:34:32.163Z,38.65
2023-05-05T01:35:32.187Z,38.66
2023-05-05T01:36:32.186Z,38.65
2023-05-05T01:37:32.222Z,38.66
2023-05-05T01:38:32.210Z,38.66
2023-05-05T01:39:32.958Z,38.62
2023-05-05T01:40:32.224Z,38.65
2023-05-05T01:41:32.241Z,38.64
2023-05-05T01:42:32.251Z,38.65
2023-05-05T01:43:32.259Z,38.64
2023-05-05T01:44:32.269Z,38.66
2023-05-05T01:45:32.342Z,38.64
2023-05-05T01:46:32.294Z,38.66
2023-05-05T01:47:32.317Z,38.64
2023-05-05T01:48:32.310Z,38.66
2023-05-05T01:49:32.317Z,38.65
2023-05-05T01:50:32.324Z,38.64
2023-05-05T01:51:32.333Z,38.65
2023-05-05T01:52:32.343Z,38.64
2023-05-05T01:53:32.353Z,38.65
2023-05-05T01:54:32.371Z,38.64
2023-05-05T01:55:32.392Z,38.66
2023-05-05T01:56:32.395Z,38.66
2023-05-05T01:57:32.423Z,38.64
2023-05-05T01:58:32.416Z,38.65
2023-05-05T01:59:32.435Z,38.65
2023-05-05T02:00:32.460Z,38.64
2023-05-05T02:01:32.494Z,38.66
2023-05-05T02:02:32.498Z,38.67
2023-05-05T02:03:32.504Z,38.65
2023-05-05T02:04:32.509Z,38.67
2023-05-05T02:05:32.528Z,38.66
2023-05-05T02:06:32.620Z,38.65
2023-05-05T02:07:32.551Z,38.68
2023-05-05T02:08:32.570Z,38.66
2023-05-05T02:09:32.564Z,38.66
2023-05-05T02:10:32.584Z,38.68
2023-05-05T02:11:32.640Z,38.66
2023-05-05T02:12:32.659Z,38.68
2023-05-05T02:13:32.653Z,38.65
2023-05-05T02:14:32.631Z,38.65
2023-05-05T02:15:32.695Z,38.66
2023-05-05T02:16:32.652Z,38.66
2023-05-05T02:17:32.710Z,38.65
2023-05-05T02:18:32.685Z,38.67
2023-05-05T02:19:32.701Z,38.65
2023-05-05T02:20:32.715Z,38.67
2023-05-05T02:21:32.723Z,38.67
2023-05-05T02:22:32.746Z,38.67
2023-05-05T02:23:32.758Z,38.66
2023-05-05T02:24:32.762Z,38.68
2023-05-05T02:25:32.771Z,38.68
2023-05-05T02:26:32.786Z,38.66
2023-05-05T02:27:32.805Z,38.66
2023-05-05T02:28:32.831Z,38.66
2023-05-05T02:29:32.845Z,38.67
2023-05-05T02:30:32.846Z,38.68
2023-05-05T02:31:32.914Z,38.67
2023-05-05T02:32:32.916Z,38.68
2023-05-05T02:33:32.893Z,38.67
2023-05-05T02:34:32.919Z,38.68
2023-05-05T02:35:32.945Z,38.68
2023-05-05T02:36:32.948Z,38.68
2023-05-05T02:37:32.960Z,38.66
2023-05-05T02:38:33.063Z,38.68
2023-05-05T02:39:32.994Z,38.66
2023-05-05T02:40:33.009Z,38.67
2023-05-05T02:41:33.023Z,38.70
2023-05-05T02:42:33.050Z,38.65
2023-05-05T02:43:33.068Z,38.66
2023-05-05T02:44:33.070Z,38.68
2023-05-05T02:45:33.096Z,38.67
2023-05-05T02:46:33.126Z,38.66
2023-05-05T02:47:33.124Z,38.67
2023-05-05T02:48:33.113Z,38.65
2023-05-05T02:49:33.129Z,38.69
2023-05-05T02:50:33.148Z,38.68
2023-05-05T02:51:33.157Z,38.69
2023-05-05T02:52:33.226Z,38.70
2023-05-05T02:53:33.172Z,38.68
2023-05-05T02:54:33.202Z,38.67
2023-05-05T02:55:33.205Z,38.67
2023-05-05T02:56:33.251Z,38.69
2023-05-05T02:57:33.239Z,38.68
2023-05-05T02:58:33.237Z,38.67
2023-05-05T02:59:33.345Z,38.67
2023-05-05T03:00:33.347Z,38.69
2023-05-05T03:01:33.307Z,38.67
2023-05-05T03:02:33.410Z,38.67
2023-05-05T03:03:33.403Z,38.66
2023-05-05T03:04:33.369Z,38.67
2023-05-05T03:05:33.384Z,38.68
2023-05-05T03:06:33.391Z,38.68
2023-05-05T03:07:33.385Z,38.69
2023-05-05T03:08:33.448Z,38.68
2023-05-05T03:09:33.480Z,38.68
2023-05-05T03:10:33.449Z,38.68
2023-05-05T03:11:33.462Z,38.67
2023-05-05T03:12:33.490Z,38.67
2023-05-05T03:13:33.497Z,38.67
2023-05-05T03:14:33.594Z,38.68
2023-05-05T03:15:33.536Z,38.64
2023-05-05T03:16:33.601Z,38.68
2023-05-05T03:17:33.585Z,38.65
2023-05-05T03:18:33.576Z,38.67
2023-05-05T03:19:33.587Z,38.67
2023-05-05T03:20:33.619Z,38.68
2023-05-05T03:21:33.634Z,38.68
2023-05-05T03:22:33.637Z,38.68
2023-05-05T03:23:33.668Z,38.68
2023-05-05T03:24:33.684Z,38.68
2023-05-05T03:25:33.698Z,38.69
2023-05-05T03:26:33.712Z,38.68
2023-05-05T03:27:33.740Z,38.67
2023-05-05T03:28:33.757Z,38.69
2023-05-05T03:29:33.766Z,38.69
2023-05-05T03:30:33.787Z,38.68
2023-05-05T03:31:33.856Z,38.72
2023-05-05T03:32:33.851Z,38.68
2023-05-05T03:33:33.843Z,38.70
2023-05-05T03:34:33.864Z,38.69
2023-05-05T03:35:33.889Z,38.68
2023-05-05T03:36:33.903Z,38.69
2023-05-05T03:37:33.947Z,38.68
2023-05-05T03:38:33.940Z,38.71
2023-05-05T03:39:33.958Z,38.69
2023-05-05T03:40:43.569Z,38.68
2023-05-05T03:41:34.930Z,38.69
2023-05-05T03:42:33.884Z,38.68
2023-05-05T03:43:33.850Z,38.70
2023-05-05T03:44:33.802Z,38.70
2023-05-05T03:45:33.798Z,38.70
2023-05-05T03:46:33.726Z,38.67
2023-05-05T03:47:33.764Z,38.69
2023-05-05T03:48:33.641Z,38.66
2023-05-05T03:49:33.607Z,38.71
2023-05-05T03:50:33.632Z,38.70
2023-05-05T03:51:33.641Z,38.66
2023-05-05T03:52:33.665Z,38.68
2023-05-05T03:53:33.692Z,38.67
2023-05-05T03:54:33.700Z,38.67
2023-05-05T03:55:33.724Z,38.66
2023-05-05T03:56:33.757Z,38.68
2023-05-05T03:57:33.772Z,38.66
2023-05-05T03:58:33.790Z,38.66
2023-05-05T03:59:33.816Z,38.68
2023-05-05T04:00:33.832Z,38.69
2023-05-05T04:01:33.849Z,38.69
2023-05-05T04:02:33.929Z,38.68
2023-05-05T04:03:33.951Z,38.69
2023-05-05T04:04:33.969Z,38.69
2023-05-05T04:05:33.963Z,38.70
2023-05-05T04:06:33.979Z,38.70
2023-05-05T04:07:34.000Z,38.70
2023-05-05T04:08:34.020Z,38.69
2023-05-05T04:09:34.051Z,38.67
2023-05-05T04:10:34.077Z,38.67
2023-05-05T04:11:34.100Z,38.67
2023-05-05T04:12:34.167Z,38.68
2023-05-05T04:13:34.137Z,38.68
2023-05-05T04:14:34.179Z,38.67
2023-05-05T04:15:34.184Z,38.67
2023-05-05T04:16:34.210Z,38.65
2023-05-05T04:17:34.247Z,38.66
2023-05-05T04:18:34.258Z,38.65
2023-05-05T04:19:34.269Z,38.67
2023-05-05T04:20:34.271Z,38.66
2023-05-05T04:21:34.305Z,38.64
2023-05-05T04:22:34.325Z,38.65
2023-05-05T04:23:34.447Z,38.66
2023-05-05T04:24:34.361Z,38.68
2023-05-05T04:25:34.392Z,38.66
2023-05-05T04:26:34.419Z,38.68
2023-05-05T04:27:34.436Z,38.66
2023-05-05T04:28:34.477Z,38.67
2023-05-05T04:29:34.471Z,38.65
2023-05-05T04:30:34.499Z,38.65
2023-05-05T04:31:34.541Z,38.66
2023-05-05T04:32:34.541Z,38.66
2023-05-05T04:33:34.555Z,38.67
2023-05-05T04:34:34.589Z,38.65
2023-05-05T04:35:34.592Z,38.65
2023-05-05T04:36:34.617Z,38.65
2023-05-05T04:37:34.635Z,38.66
2023-05-05T04:38:34.650Z,38.66
2023-05-05T04:39:34.662Z,38.65
2023-05-05T04:40:34.677Z,38.62
2023-05-05T04:41:34.715Z,38.65
2023-05-05T04:42:34.722Z,38.63
2023-05-05T04:43:34.738Z,38.64
2023-05-05T04:44:34.751Z,38.64
2023-05-05T04:45:34.767Z,38.63
2023-05-05T04:46:34.839Z,38.64
2023-05-05T04:47:34.842Z,38.63
2023-05-05T04:48:34.832Z,38.61
2023-05-05T04:49:34.851Z,38.64
2023-05-05T04:50:34.870Z,38.60
2023-05-05T04:51:34.883Z,38.62
2023-05-05T04:52:34.897Z,38.59
2023-05-05T04:53:34.912Z,38.57
2023-05-05T04:54:34.928Z,38.56
2023-05-05T04:55:34.951Z,38.54
2023-05-05T04:56:34.960Z,38.53
2023-05-05T04:57:34.965Z,38.53
2023-05-05T04:58:34.979Z,38.55
2023-05-05T04:59:34.985Z,38.55
2023-05-05T05:00:35.010Z,38.55
2023-05-05T05:01:37.739Z,38.51
2023-05-05T05:02:35.063Z,38.53
2023-05-05T05:03:35.061Z,38.52
2023-05-05T05:04:34.884Z,38.53
2023-05-05T05:05:34.845Z,38.52
2023-05-05T05:06:34.806Z,38.54
2023-05-05T05:07:34.775Z,38.53
2023-05-05T05:08:34.715Z,38.50
2023-05-05T05:09:34.677Z,38.53
2023-05-05T05:10:34.638Z,38.50
2023-05-05T05:11:34.592Z,38.52
2023-05-05T05:12:34.598Z,38.52
2023-05-05T05:13:34.508Z,38.50
2023-05-05T05:14:34.464Z,38.54
2023-05-05T05:15:34.434Z,38.48
2023-05-05T05:16:34.474Z,38.49
2023-05-05T05:17:34.408Z,38.50
2023-05-05T05:18:34.332Z,38.50
2023-05-05T05:19:34.283Z,38.49
2023-05-05T05:20:34.263Z,38.53
2023-05-05T05:21:34.233Z,38.68
2023-05-05T05:22:34.167Z,38.89
2023-05-05T05:23:34.133Z,38.87
2023-05-05T05:24:34.092Z,38.96
2023-05-05T05:25:34.051Z,39.13
2023-05-05T05:26:33.997Z,39.11
2023-05-05T05:27:33.940Z,39.06
2023-05-05T05:28:33.899Z,39.10
2023-05-05T05:29:33.857Z,39.42
2023-05-05T05:30:33.798Z,39.50
2023-05-05T05:31:33.783Z,39.60
2023-05-05T05:32:33.721Z,39.60
2023-05-05T05:33:33.679Z,39.61
2023-05-05T05:34:33.641Z,39.60
2023-05-05T05:35:33.640Z,39.55
2023-05-05T05:36:33.574Z,39.52
2023-05-05T05:37:33.505Z,39.45
2023-05-05T05:38:33.453Z,39.29
2023-05-05T05:39:33.406Z,39.21
2023-05-05T05:40:33.362Z,39.15
2023-05-05T05:41:33.328Z,39.13
2023-05-05T05:42:33.274Z,39.16
2023-05-05T05:43:33.304Z,39.18
2023-05-05T05:44:33.181Z,39.20
2023-05-05T05:45:33.129Z,39.17
2023-05-05T05:46:33.244Z,39.15
2023-05-05T05:47:33.105Z,39.16
2023-05-05T05:48:32.996Z,39.17
2023-05-05T05:49:32.929Z,39.20
2023-05-05T05:50:32.919Z,39.21
2023-05-05T05:51:32.863Z,39.22
2023-05-05T05:52:32.778Z,39.20
2023-05-05T05:53:32.746Z,39.22
2023-05-05T05:54:32.691Z,39.21
2023-05-05T05:55:32.640Z,39.19
2023-05-05T05:56:32.617Z,39.18
2023-05-05T05:57:32.552Z,39.09
2023-05-05T05:58:32.495Z,39.06
2023-05-05T05:59:32.448Z,39.01
2023-05-05T06:00:32.396Z,38.96
2023-05-05T06:01:32.376Z,38.87
2023-05-05T06:02:32.356Z,38.85
2023-05-05T06:04:32.272Z,38.79
2023-05-05T06:05:32.185Z,38.75
2023-05-05T06:06:32.118Z,38.75
2023-05-05T06:07:32.059Z,38.69
2023-05-05T06:08:32.006Z,38.59
2023-05-05T06:09:31.954Z,38.54
2023-05-05T06:10:32.233Z,38.41
2023-05-05T06:11:31.873Z,38.21
2023-05-05T06:12:31.867Z,38.09
2023-05-05T06:13:31.813Z,37.98
2023-05-05T06:14:31.772Z,37.85
2023-05-05T06:15:31.815Z,37.80
2023-05-05T06:16:31.813Z,37.75
2023-05-05T06:17:31.783Z,37.74
2023-05-05T06:18:31.778Z,37.81
2023-05-05T06:19:31.766Z,37.84
2023-05-05T06:20:31.758Z,37.80
2023-05-05T06:21:31.766Z,37.76
2023-05-05T06:22:31.736Z,37.77
2023-05-05T06:23:31.732Z,37.73
2023-05-05T06:24:31.719Z,37.71
2023-05-05T06:25:31.768Z,37.71
2023-05-05T06:26:31.711Z,37.74
2023-05-05T06:27:31.686Z,37.75
2023-05-05T06:28:31.729Z,37.80
2023-05-05T06:29:31.686Z,37.85
2023-05-05T06:30:31.674Z,37.90
2023-05-05T06:31:32.655Z,38.39
2023-05-05T06:32:31.591Z,38.22
2023-05-05T06:33:31.494Z,38.40
2023-05-05T06:34:31.453Z,38.53
2023-05-05T06:35:31.376Z,38.68
2023-05-05T06:36:31.348Z,38.83
2023-05-05T06:37:31.257Z,39.02
2023-05-05T06:38:31.184Z,39.23
2023-05-05T06:39:31.116Z,39.47
2023-05-05T06:40:31.647Z,39.57
2023-05-05T06:41:30.992Z,39.74
2023-05-05T06:42:30.918Z,39.87
2023-05-05T06:43:30.858Z,40.03
2023-05-05T06:44:30.798Z,40.16
2023-05-05T06:45:30.739Z,40.36
2023-05-05T06:46:30.704Z,40.48
2023-05-05T06:47:30.621Z,40.68
2023-05-05T06:48:30.536Z,40.81
2023-05-05T06:49:30.456Z,41.00
2023-05-05T06:50:30.398Z,41.12
2023-05-05T06:51:30.373Z,41.30
2023-05-05T06:52:30.321Z,41.49
2023-05-05T06:53:30.299Z,41.62
2023-05-05T06:54:30.433Z,41.81
2023-05-05T06:55:30.308Z,41.95
2023-05-05T06:56:30.276Z,42.11
2023-05-05T06:57:30.283Z,42.25
2023-05-05T06:58:30.250Z,42.43
2023-05-05T06:59:30.239Z,42.57
2023-05-05T07:00:30.238Z,42.66
2023-05-05T07:01:30.201Z,42.84
2023-05-05T07:02:30.210Z,42.96
2023-05-05T07:03:30.149Z,43.17
2023-05-05T07:04:30.130Z,43.31
2023-05-05T07:05:30.091Z,43.53
2023-05-05T07:06:30.075Z,43.63
2023-05-05T07:07:30.035Z,43.76
2023-05-05T07:08:29.984Z,44.03
2023-05-05T07:09:29.995Z,44.08
2023-05-05T07:10:30.050Z,44.08
2023-05-05T07:11:29.892Z,44.13
2023-05-05T07:12:29.908Z,44.32
2023-05-05T07:13:29.877Z,44.41
2023-05-05T07:14:29.783Z,44.57
2023-05-05T07:15:29.969Z,44.70
2023-05-05T07:16:29.784Z,44.88
2023-05-05T07:17:29.711Z,45.27
2023-05-05T07:18:29.627Z,45.29
2023-05-05T07:19:29.584Z,45.25
2023-05-05T07:20:29.535Z,44.45
2023-05-05T07:21:29.520Z,44.06
2023-05-05T07:22:29.757Z,42.46
2023-05-05T07:23:29.507Z,42.52
2023-05-05T07:24:29.451Z,39.71
2023-05-05T07:25:29.394Z,39.48
2023-05-05T07:26:29.404Z,39.07
2023-05-05T07:27:29.290Z,38.37
2023-05-05T07:28:29.234Z,38.66
2023-05-05T07:29:29.199Z,38.89
2023-05-05T07:30:29.196Z,37.48
2023-05-05T07:31:29.182Z,38.10
2023-05-05T07:32:29.137Z,37.74
2023-05-05T07:33:29.059Z,36.24
2023-05-05T07:34:29.034Z,36.17
2023-05-05T07:35:29.015Z,36.31
2023-05-05T07:36:28.982Z,36.19
2023-05-05T07:37:28.957Z,36.91
2023-05-05T07:38:29.185Z,37.05
2023-05-05T07:39:28.936Z,37.10
2023-05-05T07:40:28.892Z,37.19
2023-05-05T07:41:28.847Z,37.07
2023-05-05T07:42:28.944Z,37.05
2023-05-05T07:43:28.776Z,37.15
2023-05-05T07:44:28.874Z,37.22
2023-05-05T07:45:28.685Z,37.25
2023-05-05T07:46:28.775Z,37.29
2023-05-05T07:47:28.621Z,37.13
2023-05-05T07:48:28.569Z,36.96
2023-05-05T07:49:28.498Z,36.91
2023-05-05T07:50:28.458Z,37.08
2023-05-05T07:51:28.401Z,37.07
2023-05-05T07:52:43.316Z,37.10
2023-05-05T07:53:29.291Z,37.19
2023-05-05T07:54:28.228Z,37.07
2023-05-05T07:55:28.160Z,37.09
2023-05-05T07:56:28.101Z,37.06
2023-05-05T07:57:28.063Z,37.04
2023-05-05T07:58:28.037Z,36.97
2023-05-05T07:59:29.584Z,36.99
2023-05-05T08:00:27.843Z,36.99
2023-05-05T08:01:27.781Z,37.01
2023-05-05T08:02:27.804Z,37.20
2023-05-05T08:03:27.766Z,37.15
2023-05-05T08:04:27.613Z,37.10
2023-05-05T08:05:27.539Z,37.09
2023-05-05T08:06:27.478Z,36.97
2023-05-05T08:07:27.429Z,36.93
2023-05-05T08:08:27.352Z,36.85
2023-05-05T08:09:27.274Z,36.85
2023-05-05T08:10:27.224Z,36.41
2023-05-05T08:11:29.466Z,34.76
2023-05-05T08:12:27.403Z,34.37
2023-05-05T08:13:27.103Z,34.44
2023-05-05T08:14:27.283Z,33.43
2023-05-05T08:15:26.989Z,33.39
2023-05-05T08:16:26.982Z,33.81
2023-05-05T08:17:26.881Z,34.04
2023-05-05T08:18:26.814Z,34.52
2023-05-05T08:19:29.280Z,35.40
2023-05-05T08:20:26.730Z,35.29
2023-05-05T08:21:26.661Z,35.58
2023-05-05T08:22:27.175Z,35.77
2023-05-05T08:23:26.592Z,35.68
2023-05-05T08:24:26.506Z,35.05
2023-05-05T08:25:26.454Z,34.49
2023-05-05T08:26:26.403Z,34.68
2023-05-05T08:27:26.362Z,35.03
2023-05-05T08:28:26.298Z,35.26
2023-05-05T08:29:26.266Z,35.30
2023-05-05T08:30:26.298Z,35.25
2023-05-05T08:31:26.153Z,35.24
2023-05-05T08:32:27.863Z,35.50
2023-05-05T08:33:26.016Z,35.30
2023-05-05T08:34:25.966Z,35.78
2023-05-05T08:35:25.920Z,35.41
2023-05-05T08:36:25.843Z,35.80
2023-05-05T08:37:25.805Z,35.95
2023-05-05T08:38:26.224Z,36.03
2023-05-05T08:39:25.678Z,36.09
2023-05-05T08:40:25.634Z,36.15
2023-05-05T08:41:25.593Z,36.15
2023-05-05T08:42:36.168Z,36.24
2023-05-05T08:43:26.458Z,36.38
2023-05-05T08:44:25.388Z,36.44
2023-05-05T08:45:25.326Z,36.48
2023-05-05T08:46:25.338Z,36.49
2023-05-05T08:47:25.206Z,36.60
2023-05-05T08:48:25.134Z,36.64
2023-05-05T08:49:25.064Z,36.65
2023-05-05T08:50:24.998Z,36.72
2023-05-05T08:51:24.986Z,36.78
2023-05-05T08:52:25.022Z,36.75
2023-05-05T08:53:24.973Z,36.83
2023-05-05T08:54:24.969Z,36.84
2023-05-05T08:55:24.969Z,36.94
2023-05-05T08:56:24.968Z,36.99
2023-05-05T08:57:24.989Z,37.05
2023-05-05T08:58:26.908Z,37.16
2023-05-05T08:59:24.894Z,37.27
2023-05-05T09:00:24.809Z,37.29
2023-05-05T09:01:24.803Z,37.24
2023-05-05T09:02:24.986Z,37.20
2023-05-05T09:03:24.793Z,37.16
2023-05-05T09:04:24.568Z,37.16
2023-05-05T09:05:24.482Z,37.18
2023-05-05T09:06:24.469Z,37.15
2023-05-05T09:07:24.352Z,37.17
2023-05-05T09:08:24.285Z,37.24
2023-05-05T09:09:24.216Z,37.25
2023-05-05T09:10:24.654Z,37.23
2023-05-05T09:11:24.091Z,37.26
2023-05-05T09:12:24.017Z,37.24
2023-05-05T09:13:23.958Z,37.23
2023-05-05T09:14:23.873Z,37.26
2023-05-05T09:15:23.819Z,37.38
2023-05-05T09:16:23.804Z,37.65
2023-05-05T09:17:23.746Z,37.80
2023-05-05T09:18:23.630Z,37.67
2023-05-05T09:19:23.551Z,37.94
2023-05-05T09:20:23.483Z,37.98
2023-05-05T09:21:23.418Z,38.22
2023-05-05T09:22:23.353Z,38.40
2023-05-05T09:23:23.291Z,38.60
2023-05-05T09:24:23.214Z,38.73
2023-05-05T09:25:23.147Z,38.91
2023-05-05T09:26:23.704Z,39.01
2023-05-05T09:27:22.998Z,39.11
2023-05-05T09:28:22.912Z,39.21
2023-05-05T09:29:22.821Z,39.25
2023-05-05T09:30:22.753Z,39.38
2023-05-05T09:31:22.812Z,39.42
2023-05-05T09:32:22.722Z,39.52
2023-05-05T09:33:22.567Z,39.51
2023-05-05T09:34:22.597Z,39.58
2023-05-05T09:35:22.540Z,39.80
2023-05-05T09:36:22.516Z,39.94
2023-05-05T09:37:22.497Z,40.05
2023-05-05T09:38:22.484Z,40.08
2023-05-05T09:39:22.459Z,40.16
2023-05-05T09:40:22.461Z,40.25
2023-05-05T09:41:22.416Z,40.54
2023-05-05T09:42:22.391Z,40.50
2023-05-05T09:43:22.387Z,40.51
2023-05-05T09:44:22.346Z,40.58
2023-05-05T09:45:22.309Z,40.64
2023-05-05T09:46:22.432Z,40.72
2023-05-05T09:47:29.344Z,40.89
2023-05-05T09:48:23.745Z,40.96
2023-05-05T09:49:22.115Z,40.97
2023-05-05T09:50:22.106Z,41.04
2023-05-05T09:51:21.955Z,41.14
2023-05-05T09:52:21.881Z,41.15
2023-05-05T09:53:21.850Z,41.20
2023-05-05T09:54:21.792Z,41.32
2023-05-05T09:55:21.639Z,41.42
2023-05-05T09:56:21.568Z,41.39
2023-05-05T09:57:21.499Z,41.58
2023-05-05T09:58:23.152Z,41.60
2023-05-05T09:59:21.394Z,41.59
2023-05-05T10:00:22.228Z,41.62
2023-05-05T10:01:21.365Z,41.66
2023-05-05T10:02:21.302Z,41.64
2023-05-05T10:03:21.291Z,41.53
2023-05-05T10:04:21.315Z,41.32
2023-05-05T10:05:21.299Z,41.26
2023-05-05T10:06:21.244Z,41.04
2023-05-05T10:07:21.143Z,40.69
2023-05-05T10:08:21.133Z,40.47
2023-05-05T10:09:21.085Z,40.42
2023-05-05T10:10:21.063Z,40.40
2023-05-05T10:11:21.040Z,40.38
2023-05-05T10:12:21.008Z,40.40
2023-05-05T10:13:21.021Z,40.44
2023-05-05T10:14:21.214Z,40.44
2023-05-05T10:15:21.006Z,40.42
2023-05-05T10:16:21.002Z,40.40
2023-05-05T10:17:20.976Z,40.42
2023-05-05T10:18:20.979Z,40.43
2023-05-05T10:19:21.636Z,40.45
2023-05-05T10:20:20.995Z,40.42
2023-05-05T10:21:20.960Z,40.48
2023-05-05T10:22:21.137Z,40.46
2023-05-05T10:23:20.970Z,40.46
2023-05-05T10:24:21.656Z,40.44
2023-05-05T10:25:20.978Z,40.45
2023-05-05T10:26:20.969Z,40.97
2023-05-05T10:27:20.975Z,40.70
2023-05-05T10:28:20.961Z,40.64
2023-05-05T10:29:20.960Z,40.61
2023-05-05T10:30:20.905Z,40.59
2023-05-05T10:31:26.296Z,40.63
2023-05-05T10:34:20.707Z,40.64
2023-05-05T10:35:20.601Z,40.58
2023-05-05T10:36:20.540Z,40.57
2023-05-05T10:37:20.472Z,40.59
2023-05-05T10:38:20.470Z,40.60
2023-05-05T10:39:20.354Z,40.59
2023-05-05T10:40:20.285Z,40.60
2023-05-05T10:41:20.223Z,40.59
2023-05-05T10:42:20.164Z,40.60
2023-05-05T10:43:20.109Z,40.60
2023-05-05T10:44:20.040Z,40.53
2023-05-05T10:45:20.824Z,40.55
2023-05-05T10:46:19.937Z,40.54
2023-05-05T10:47:19.861Z,40.55
2023-05-05T10:48:19.778Z,40.54
2023-05-05T10:49:19.793Z,40.55
2023-05-05T10:50:19.742Z,40.56
2023-05-05T10:51:31.070Z,40.53
2023-05-05T10:52:20.510Z,40.53
2023-05-05T10:53:19.442Z,40.48
2023-05-05T10:54:19.502Z,40.47
2023-05-05T10:55:19.347Z,40.46
2023-05-05T10:56:19.300Z,40.47
2023-05-05T10:57:19.325Z,40.45
2023-05-05T10:58:19.136Z,40.45
2023-05-05T10:59:19.084Z,40.49
2023-05-05T11:00:19.142Z,40.46
2023-05-05T11:01:18.989Z,40.45
2023-05-05T11:02:18.896Z,40.45
2023-05-05T11:03:18.867Z,40.46
2023-05-05T11:04:19.786Z,40.42
2023-05-05T11:05:18.703Z,40.40
2023-05-05T11:06:18.630Z,40.40
2023-05-05T11:07:18.564Z,40.40
2023-05-05T11:08:18.505Z,40.39
2023-05-05T11:09:18.415Z,40.40
2023-05-05T11:10:18.390Z,40.40
2023-05-05T11:11:18.273Z,40.41
2023-05-05T11:12:18.209Z,40.45
2023-05-05T11:13:18.227Z,40.43
2023-05-05T11:14:18.109Z,40.40
2023-05-05T11:15:18.065Z,40.42
2023-05-05T11:16:18.027Z,40.41
2023-05-05T11:17:17.999Z,40.41
2023-05-05T11:18:18.018Z,40.39
2023-05-05T11:19:17.881Z,40.40
2023-05-05T11:20:17.831Z,40.38
2023-05-05T11:21:17.915Z,40.36
2023-05-05T11:22:17.829Z,40.36
2023-05-05T11:23:17.782Z,40.34
2023-05-05T11:24:17.662Z,40.36
2023-05-05T11:25:17.631Z,40.35
2023-05-05T11:26:17.695Z,40.32
2023-05-05T11:27:17.518Z,40.31
2023-05-05T11:28:17.489Z,40.27
2023-05-05T11:29:17.436Z,40.26
2023-05-05T11:30:17.391Z,40.28
2023-05-05T11:31:17.404Z,40.27
2023-05-05T11:32:17.334Z,40.30
2023-05-05T11:33:17.268Z,40.28
2023-05-05T11:34:17.238Z,40.24
2023-05-05T11:35:17.201Z,40.22
2023-05-05T11:36:17.141Z,40.22
2023-05-05T11:37:17.115Z,40.21
2023-05-05T11:38:17.058Z,40.23
2023-05-05T11:39:17.092Z,40.24
2023-05-05T11:40:16.961Z,40.25
2023-05-05T11:41:16.911Z,40.21
2023-05-05T11:42:16.919Z,40.24
2023-05-05T11:43:16.819Z,40.21
2023-05-05T11:44:16.793Z,40.19
2023-05-05T11:45:16.726Z,40.21
2023-05-05T11:46:16.757Z,40.23
2023-05-05T11:47:16.725Z,40.22
2023-05-05T11:48:16.657Z,40.20
2023-05-05T11:49:16.595Z,40.20
2023-05-05T11:50:17.503Z,40.16
2023-05-05T11:51:16.452Z,40.12
2023-05-05T11:52:16.364Z,40.13
2023-05-05T11:53:16.303Z,40.12
2023-05-05T11:54:16.241Z,40.17
2023-05-05T11:55:16.183Z,40.13
2023-05-05T11:56:16.113Z,40.15
2023-05-05T11:57:16.051Z,40.12
2023-05-05T11:58:15.969Z,40.10
2023-05-05T11:59:15.908Z,40.04
2023-05-05T12:00:15.829Z,40.01
2023-05-05T12:01:15.773Z,39.98
2023-05-05T12:02:15.758Z,40.00
2023-05-05T12:03:15.796Z,40.01
2023-05-05T12:04:15.697Z,40.01
2023-05-05T12:05:15.504Z,39.97
2023-05-05T12:06:15.433Z,39.95
2023-05-05T12:07:15.378Z,39.92
2023-05-05T12:08:15.302Z,39.95
2023-05-05T12:09:15.245Z,39.89
2023-05-05T12:10:15.167Z,39.88
2023-05-05T12:11:15.104Z,39.88
2023-05-05T12:12:15.041Z,39.86
2023-05-05T12:13:14.968Z,39.85
2023-05-05T12:14:14.969Z,39.85
2023-05-05T12:15:14.839Z,39.82
2023-05-05T12:16:14.805Z,39.85
2023-05-05T12:17:14.703Z,39.83
2023-05-05T12:18:14.667Z,39.84
2023-05-05T12:19:14.609Z,39.83
2023-05-05T12:20:14.610Z,39.83
2023-05-05T12:21:14.534Z,39.81
2023-05-05T12:22:14.485Z,39.80
2023-05-05T12:23:14.434Z,39.78
2023-05-05T12:24:14.392Z,39.80
2023-05-05T12:25:14.343Z,39.78
2023-05-05T12:26:14.295Z,39.78
2023-05-05T12:27:14.257Z,39.75
2023-05-05T12:28:14.200Z,39.78
2023-05-05T12:29:14.161Z,39.77
2023-05-05T12:30:14.125Z,39.74
2023-05-05T12:31:14.297Z,39.75
2023-05-05T12:32:14.222Z,39.76
2023-05-05T12:33:13.996Z,39.74
2023-05-05T12:34:13.941Z,39.75
2023-05-05T12:35:13.904Z,39.70
2023-05-05T12:36:13.860Z,39.72
2023-05-05T12:37:13.811Z,39.73
2023-05-05T12:38:13.763Z,39.74
2023-05-05T12:39:13.722Z,39.69
2023-05-05T12:40:13.673Z,39.66
2023-05-05T12:41:13.625Z,39.67
2023-05-05T12:42:13.583Z,39.65
2023-05-05T12:43:13.570Z,39.64
2023-05-05T12:44:13.502Z,39.62
2023-05-05T12:45:13.436Z,39.63
2023-05-05T12:46:13.496Z,39.62
2023-05-05T12:47:13.345Z,39.62
2023-05-05T12:48:13.298Z,39.66
2023-05-05T12:49:13.284Z,39.67
2023-05-05T12:50:13.222Z,39.61
2023-05-05T12:51:13.186Z,39.65
2023-05-05T12:52:13.142Z,39.61
2023-05-05T12:53:13.107Z,39.58
2023-05-05T12:54:13.068Z,39.58
2023-05-05T12:55:13.153Z,39.58